sensor_id;sensor_type;location;lat;lon;timestamp;pressure;altitude;pressure_sealevel;temperature;humidity
23281;BME280;11809;56.390;-3.266;2023-03-02T00:01:24;102921.69;;;15.07;49.58
23281;BME280;11809;56.390;-3.266;2023-03-02T00:03:52;102917.41;;;15.02;49.78
23281;BME280;11809;56.390;-3.266;2023-03-02T00:06:20;102914.81;;;15.00;49.56
23281;BME280;11809;56.390;-3.266;2023-03-02T00:08:47;102921.88;;;14.98;49.88
23281;BME280;11809;56.390;-3.266;2023-03-02T00:11:14;102922.00;;;14.94;49.66
23281;BME280;11809;56.390;-3.266;2023-03-02T00:13:41;102920.22;;;14.94;49.89
23281;BME280;11809;56.390;-3.266;2023-03-02T00:16:09;102912.41;;;14.90;49.83
23281;BME280;11809;56.390;-3.266;2023-03-02T00:18:36;102910.59;;;14.90;49.80
23281;BME280;11809;56.390;-3.266;2023-03-02T00:21:04;102912.41;;;14.88;49.90
23281;BME280;11809;56.390;-3.266;2023-03-02T00:23:30;102908.94;;;14.86;50.05
23281;BME280;11809;56.390;-3.266;2023-03-02T00:25:57;102909.88;;;14.84;50.04
23281;BME280;11809;56.390;-3.266;2023-03-02T00:28:24;102908.16;;;14.81;50.26
23281;BME280;11809;56.390;-3.266;2023-03-02T00:30:51;102912.56;;;14.82;49.98
23281;BME280;11809;56.390;-3.266;2023-03-02T00:33:18;102917.00;;;14.80;50.27
23281;BME280;11809;56.390;-3.266;2023-03-02T00:35:46;102910.03;;;14.76;50.35
23281;BME280;11809;56.390;-3.266;2023-03-02T00:38:13;102902.94;;;14.78;50.04
23281;BME280;11809;56.390;-3.266;2023-03-02T00:40:44;102912.69;;;14.76;50.31
23281;BME280;11809;56.390;-3.266;2023-03-02T00:43:12;102917.06;;;14.77;50.25
23281;BME280;11809;56.390;-3.266;2023-03-02T00:45:39;102904.81;;;14.73;50.32
23281;BME280;11809;56.390;-3.266;2023-03-02T00:48:06;102910.09;;;14.73;50.45
23281;BME280;11809;56.390;-3.266;2023-03-02T00:50:33;102896.09;;;14.68;50.73
23281;BME280;11809;56.390;-3.266;2023-03-02T00:53:07;102903.13;;;14.69;50.40
23281;BME280;11809;56.390;-3.266;2023-03-02T00:55:35;102897.91;;;14.66;50.55
23281;BME280;11809;56.390;-3.266;2023-03-02T00:58:04;102889.13;;;14.64;50.55
23281;BME280;11809;56.390;-3.266;2023-03-02T01:00:31;102893.56;;;14.64;50.73
23281;BME280;11809;56.390;-3.266;2023-03-02T01:02:59;102890.03;;;14.63;50.42
23281;BME280;11809;56.390;-3.266;2023-03-02T01:05:26;102886.56;;;14.60;50.72
23281;BME280;11809;56.390;-3.266;2023-03-02T01:07:53;102883.06;;;14.59;50.56
23281;BME280;11809;56.390;-3.266;2023-03-02T01:10:20;102878.69;;;14.58;50.79
23281;BME280;11809;56.390;-3.266;2023-03-02T01:12:47;102873.44;;;14.55;50.90
23281;BME280;11809;56.390;-3.266;2023-03-02T01:15:14;102877.88;;;14.54;50.54
23281;BME280;11809;56.390;-3.266;2023-03-02T01:17:41;102873.50;;;14.52;50.82
23281;BME280;11809;56.390;-3.266;2023-03-02T01:20:10;102871.75;;;14.51;50.82
23281;BME280;11809;56.390;-3.266;2023-03-02T01:22:38;102867.38;;;14.50;50.78
23281;BME280;11809;56.390;-3.266;2023-03-02T01:25:05;102861.22;;;14.48;50.53
23281;BME280;11809;56.390;-3.266;2023-03-02T01:27:32;102861.28;;;14.46;50.83
23281;BME280;11809;56.390;-3.266;2023-03-02T01:29:58;102860.47;;;14.43;50.87
23281;BME280;11809;56.390;-3.266;2023-03-02T01:32:25;102879.84;;;14.43;50.66
23281;BME280;11809;56.390;-3.266;2023-03-02T01:34:53;102871.03;;;14.43;50.96
23281;BME280;11809;56.390;-3.266;2023-03-02T01:37:20;102866.69;;;14.42;50.63
23281;BME280;11809;56.390;-3.266;2023-03-02T01:39:49;102873.75;;;14.40;50.56
23281;BME280;11809;56.390;-3.266;2023-03-02T01:42:16;102875.56;;;14.38;50.86
23281;BME280;11809;56.390;-3.266;2023-03-02T01:44:45;102873.84;;;14.37;50.64
23281;BME280;11809;56.390;-3.266;2023-03-02T01:47:27;102868.56;;;14.35;50.62
23281;BME280;11809;56.390;-3.266;2023-03-02T01:50:04;102860.69;;;14.32;50.88
23281;BME280;11809;56.390;-3.266;2023-03-02T01:52:33;102868.63;;;14.32;50.60
23281;BME280;11809;56.390;-3.266;2023-03-02T01:55:03;102863.34;;;14.31;50.60
23281;BME280;11809;56.390;-3.266;2023-03-02T01:57:35;102849.22;;;14.32;50.93
23281;BME280;11809;56.390;-3.266;2023-03-02T02:00:20;102856.28;;;14.30;50.76
23281;BME280;11809;56.390;-3.266;2023-03-02T02:02:48;102855.47;;;14.28;50.68
23281;BME280;11809;56.390;-3.266;2023-03-02T02:05:19;102847.59;;;14.25;50.73
23281;BME280;11809;56.390;-3.266;2023-03-02T02:07:46;102858.09;;;14.28;50.76
23281;BME280;11809;56.390;-3.266;2023-03-02T02:10:13;102836.13;;;14.24;50.88
23281;BME280;11809;56.390;-3.266;2023-03-02T02:12:40;102844.06;;;14.24;50.84
23281;BME280;11809;56.390;-3.266;2023-03-02T02:15:08;102834.41;;;14.23;51.14
23281;BME280;11809;56.390;-3.266;2023-03-02T02:17:35;102837.06;;;14.22;51.19
23281;BME280;11809;56.390;-3.266;2023-03-02T02:20:16;102838.81;;;14.23;51.10
23281;BME280;11809;56.390;-3.266;2023-03-02T02:23:01;102827.31;;;14.24;51.07
23281;BME280;11809;56.390;-3.266;2023-03-02T02:28:26;102819.44;;;14.22;50.86
23281;BME280;11809;56.390;-3.266;2023-03-02T02:33:31;102816.78;;;14.22;51.22
23281;BME280;11809;56.390;-3.266;2023-03-02T02:36:08;102812.44;;;14.20;50.92
23281;BME280;11809;56.390;-3.266;2023-03-02T02:38:39;102804.50;;;14.20;51.09
23281;BME280;11809;56.390;-3.266;2023-03-02T02:41:07;102804.50;;;14.20;51.14
23281;BME280;11809;56.390;-3.266;2023-03-02T02:43:38;102800.09;;;14.19;51.20
23281;BME280;11809;56.390;-3.266;2023-03-02T02:46:05;102794.81;;;14.19;51.01
23281;BME280;11809;56.390;-3.266;2023-03-02T02:48:32;102786.00;;;14.20;51.17
23281;BME280;11809;56.390;-3.266;2023-03-02T02:51:00;102778.94;;;14.19;51.31
23281;BME280;11809;56.390;-3.266;2023-03-02T02:56:16;102766.66;;;14.18;51.20
23281;BME280;11809;56.390;-3.266;2023-03-02T02:58:52;102764.88;;;14.18;51.13
23281;BME280;11809;56.390;-3.266;2023-03-02T03:01:21;102761.38;;;14.18;51.12
23281;BME280;11809;56.390;-3.266;2023-03-02T03:03:59;102765.81;;;14.16;51.63
23281;BME280;11809;56.390;-3.266;2023-03-02T03:06:29;102757.88;;;14.16;51.34
23281;BME280;11809;56.390;-3.266;2023-03-02T03:09:09;102746.44;;;14.15;51.32
23281;BME280;11809;56.390;-3.266;2023-03-02T03:11:39;102745.56;;;14.15;51.38
23281;BME280;11809;56.390;-3.266;2023-03-02T03:14:10;102742.88;;;14.16;51.21
23281;BME280;11809;56.390;-3.266;2023-03-02T03:16:40;102744.66;;;14.16;51.46
23281;BME280;11809;56.390;-3.266;2023-03-02T03:19:24;102734.09;;;14.16;51.27
23281;BME280;11809;56.390;-3.266;2023-03-02T03:21:54;102729.69;;;14.15;51.42
23281;BME280;11809;56.390;-3.266;2023-03-02T03:24:22;102729.69;;;14.15;51.57
23281;BME280;11809;56.390;-3.266;2023-03-02T03:26:50;102733.22;;;14.14;51.50
23281;BME280;11809;56.390;-3.266;2023-03-02T03:29:17;102728.88;;;14.13;51.63
23281;BME280;11809;56.390;-3.266;2023-03-02T03:31:44;102732.34;;;14.15;51.37
23281;BME280;11809;56.390;-3.266;2023-03-02T03:34:11;102733.22;;;14.14;51.88
23281;BME280;11809;56.390;-3.266;2023-03-02T03:36:38;102734.09;;;14.14;51.34
23281;BME280;11809;56.390;-3.266;2023-03-02T03:39:05;102724.41;;;14.15;51.34
23281;BME280;11809;56.390;-3.266;2023-03-02T03:41:32;102734.09;;;14.16;51.82
23281;BME280;11809;56.390;-3.266;2023-03-02T03:43:59;102730.56;;;14.15;51.54
23281;BME280;11809;56.390;-3.266;2023-03-02T03:46:26;102731.44;;;14.16;51.31
23281;BME280;11809;56.390;-3.266;2023-03-02T03:48:54;102727.00;;;14.16;51.26
23281;BME280;11809;56.390;-3.266;2023-03-02T03:51:21;102730.59;;;14.14;50.93
23281;BME280;11809;56.390;-3.266;2023-03-02T03:53:48;102724.34;;;14.16;51.51
23281;BME280;11809;56.390;-3.266;2023-03-02T03:56:30;102727.88;;;14.17;51.26
23281;BME280;11809;56.390;-3.266;2023-03-02T03:59:00;102722.66;;;14.14;51.69
23281;BME280;11809;56.390;-3.266;2023-03-02T04:01:39;102723.53;;;14.14;51.41
23281;BME280;11809;56.390;-3.266;2023-03-02T04:04:11;102728.75;;;14.17;51.48
23281;BME280;11809;56.390;-3.266;2023-03-02T04:06:39;102726.06;;;14.19;51.56
23281;BME280;11809;56.390;-3.266;2023-03-02T04:09:07;102729.63;;;14.18;51.50
23281;BME280;11809;56.390;-3.266;2023-03-02T04:11:37;102725.22;;;14.18;51.45
23281;BME280;11809;56.390;-3.266;2023-03-02T04:14:05;102724.28;;;14.21;51.48
23281;BME280;11809;56.390;-3.266;2023-03-02T04:16:33;102729.47;;;14.24;52.13
23281;BME280;11809;56.390;-3.266;2023-03-02T04:19:01;102722.47;;;14.21;52.07
23281;BME280;11809;56.390;-3.266;2023-03-02T04:21:28;102728.69;;;14.20;51.71
23281;BME280;11809;56.390;-3.266;2023-03-02T04:23:55;102730.47;;;14.20;51.66
23281;BME280;11809;56.390;-3.266;2023-03-02T04:26:22;102726.06;;;14.19;51.95
23281;BME280;11809;56.390;-3.266;2023-03-02T04:28:49;102726.97;;;14.18;51.81
23281;BME280;11809;56.390;-3.266;2023-03-02T04:31:16;102734.91;;;14.18;52.03
23281;BME280;11809;56.390;-3.266;2023-03-02T04:33:43;102726.16;;;14.16;51.95
23281;BME280;11809;56.390;-3.266;2023-03-02T04:36:10;102723.47;;;14.17;51.91
23281;BME280;11809;56.390;-3.266;2023-03-02T04:38:37;102726.94;;;14.19;51.78
23281;BME280;11809;56.390;-3.266;2023-03-02T04:41:05;102724.41;;;14.15;51.93
23281;BME280;11809;56.390;-3.266;2023-03-02T04:43:32;102726.94;;;14.19;52.00
23281;BME280;11809;56.390;-3.266;2023-03-02T04:45:59;102732.22;;;14.19;52.05
23281;BME280;11809;56.390;-3.266;2023-03-02T04:48:26;102723.41;;;14.19;52.08
23281;BME280;11809;56.390;-3.266;2023-03-02T04:50:53;102718.19;;;14.17;51.93
23281;BME280;11809;56.390;-3.266;2023-03-02T04:53:19;102726.06;;;14.19;51.91
23281;BME280;11809;56.390;-3.266;2023-03-02T04:55:46;102729.56;;;14.21;52.37
23281;BME280;11809;56.390;-3.266;2023-03-02T04:58:14;102733.03;;;14.23;52.10
23281;BME280;11809;56.390;-3.266;2023-03-02T05:00:41;102733.91;;;14.23;51.77
23281;BME280;11809;56.390;-3.266;2023-03-02T05:03:07;102731.28;;;14.22;52.06
23281;BME280;11809;56.390;-3.266;2023-03-02T05:05:34;102734.75;;;14.24;52.04
23281;BME280;11809;56.390;-3.266;2023-03-02T05:08:01;102727.81;;;14.20;52.33
23281;BME280;11809;56.390;-3.266;2023-03-02T05:10:28;102733.97;;;14.20;52.44
23281;BME280;11809;56.390;-3.266;2023-03-02T05:12:55;102727.81;;;14.20;52.44
23281;BME280;11809;56.390;-3.266;2023-03-02T05:15:34;102728.63;;;14.23;52.55
23281;BME280;11809;56.390;-3.266;2023-03-02T05:18:03;102736.44;;;14.28;52.07
23281;BME280;11809;56.390;-3.266;2023-03-02T05:20:30;102736.44;;;14.28;52.30
23281;BME280;11809;56.390;-3.266;2023-03-02T05:23:00;102727.69;;;14.26;52.15
23281;BME280;11809;56.390;-3.266;2023-03-02T05:25:29;102731.22;;;14.25;52.21
23281;BME280;11809;56.390;-3.266;2023-03-02T05:27:57;102731.16;;;14.28;51.96
23281;BME280;11809;56.390;-3.266;2023-03-02T05:30:24;102728.56;;;14.26;52.48
23281;BME280;11809;56.390;-3.266;2023-03-02T05:32:51;102720.56;;;14.28;52.34
23281;BME280;11809;56.390;-3.266;2023-03-02T05:35:20;102723.28;;;14.25;52.33
23281;BME280;11809;56.390;-3.266;2023-03-02T05:37:47;102724.06;;;14.30;51.99
23281;BME280;11809;56.390;-3.266;2023-03-02T05:40:18;102727.56;;;14.32;52.25
23281;BME280;11809;56.390;-3.266;2023-03-02T05:42:45;102726.72;;;14.31;52.46
23281;BME280;11809;56.390;-3.266;2023-03-02T05:45:18;102725.78;;;14.34;52.27
23281;BME280;11809;56.390;-3.266;2023-03-02T05:47:46;102724.03;;;14.33;52.39
23281;BME280;11809;56.390;-3.266;2023-03-02T05:50:13;102729.31;;;14.33;52.27
23281;BME280;11809;56.390;-3.266;2023-03-02T05:52:41;102723.97;;;14.36;52.04
23281;BME280;11809;56.390;-3.266;2023-03-02T05:55:08;102719.53;;;14.36;52.27
23281;BME280;11809;56.390;-3.266;2023-03-02T05:57:35;102721.25;;;14.37;52.27
23281;BME280;11809;56.390;-3.266;2023-03-02T06:00:03;102722.97;;;14.40;52.29
23281;BME280;11809;56.390;-3.266;2023-03-02T06:02:31;102723.75;;;14.45;52.07
23281;BME280;11809;56.390;-3.266;2023-03-02T06:04:58;102719.19;;;14.51;52.12
23281;BME280;11809;56.390;-3.266;2023-03-02T06:07:25;102710.28;;;14.55;51.90
23281;BME280;11809;56.390;-3.266;2023-03-02T06:09:52;102710.16;;;14.60;51.83
23281;BME280;11809;56.390;-3.266;2023-03-02T06:12:19;102710.09;;;14.62;51.77
23281;BME280;11809;56.390;-3.266;2023-03-02T06:14:46;102719.69;;;14.67;51.81
23281;BME280;11809;56.390;-3.266;2023-03-02T06:17:13;102721.28;;;14.74;51.48
23281;BME280;11809;56.390;-3.266;2023-03-02T06:19:40;102713.25;;;14.77;51.37
23281;BME280;11809;56.390;-3.266;2023-03-02T06:22:07;102710.59;;;14.77;51.21
23281;BME280;11809;56.390;-3.266;2023-03-02T06:24:34;102724.78;;;14.75;51.72
23281;BME280;11809;56.390;-3.266;2023-03-02T06:27:01;102721.44;;;14.68;50.42
23281;BME280;11809;56.390;-3.266;2023-03-02T06:29:28;102721.44;;;14.68;50.83
23281;BME280;11809;56.390;-3.266;2023-03-02T06:31:55;102716.91;;;14.72;50.96
23281;BME280;11809;56.390;-3.266;2023-03-02T06:34:22;102723.06;;;14.72;51.32
23281;BME280;11809;56.390;-3.266;2023-03-02T06:36:48;102723.06;;;14.72;51.69
23281;BME280;11809;56.390;-3.266;2023-03-02T06:39:15;102714.31;;;14.70;51.63
23281;BME280;11809;56.390;-3.266;2023-03-02T06:41:44;102717.72;;;14.75;51.85
23281;BME280;11809;56.390;-3.266;2023-03-02T06:44:12;102720.16;;;14.83;52.08
23281;BME280;11809;56.390;-3.266;2023-03-02T06:46:39;102724.44;;;14.90;51.92
23281;BME280;11809;56.390;-3.266;2023-03-02T06:49:08;102717.25;;;14.93;51.91
23281;BME280;11809;56.390;-3.266;2023-03-02T06:51:36;102719.81;;;14.98;51.95
23281;BME280;11809;56.390;-3.266;2023-03-02T06:54:04;102718.84;;;15.00;51.79
23281;BME280;11809;56.390;-3.266;2023-03-02T06:56:33;102717.97;;;15.00;52.01
23281;BME280;11809;56.390;-3.266;2023-03-02T06:59:00;102723.31;;;14.98;51.77
23281;BME280;11809;56.390;-3.266;2023-03-02T07:01:27;102721.66;;;14.94;51.44
23281;BME280;11809;56.390;-3.266;2023-03-02T07:04:02;102734.66;;;14.68;49.15
23281;BME280;11809;56.390;-3.266;2023-03-02T07:06:29;102737.94;;;14.79;50.81
23281;BME280;11809;56.390;-3.266;2023-03-02T07:08:56;102729.78;;;14.87;51.31
23281;BME280;11809;56.390;-3.266;2023-03-02T07:11:23;102732.28;;;14.93;51.40
23281;BME280;11809;56.390;-3.266;2023-03-02T07:13:50;102733.13;;;14.93;51.26
23281;BME280;11809;56.390;-3.266;2023-03-02T07:16:17;102727.69;;;14.99;51.48
23281;BME280;11809;56.390;-3.266;2023-03-02T07:18:44;102730.41;;;14.96;50.95
23281;BME280;11809;56.390;-3.266;2023-03-02T07:21:11;102722.47;;;14.96;51.01
23281;BME280;11809;56.390;-3.266;2023-03-02T07:23:38;102737.41;;;14.99;51.41
23281;BME280;11809;56.390;-3.266;2023-03-02T07:26:05;102722.31;;;15.02;51.48
23281;BME280;11809;56.390;-3.266;2023-03-02T07:28:37;102722.25;;;15.05;51.42
23281;BME280;11809;56.390;-3.266;2023-03-02T07:31:08;102723.06;;;15.07;51.20
23281;BME280;11809;56.390;-3.266;2023-03-02T07:33:37;102723.91;;;15.09;51.53
23281;BME280;11809;56.390;-3.266;2023-03-02T07:36:06;102722.06;;;15.13;51.49
23281;BME280;11809;56.390;-3.266;2023-03-02T07:38:35;102722.00;;;15.14;51.48
23281;BME280;11809;56.390;-3.266;2023-03-02T07:41:06;102727.28;;;15.14;51.76
23281;BME280;11809;56.390;-3.266;2023-03-02T07:43:33;102727.28;;;15.14;51.41
23281;BME280;11809;56.390;-3.266;2023-03-02T07:46:03;102735.22;;;15.16;51.40
23281;BME280;11809;56.390;-3.266;2023-03-02T07:48:31;102735.16;;;15.19;51.55
23281;BME280;11809;56.390;-3.266;2023-03-02T07:50:59;102744.88;;;15.18;51.25
23281;BME280;11809;56.390;-3.266;2023-03-02T07:53:27;102736.09;;;15.16;51.29
23281;BME280;11809;56.390;-3.266;2023-03-02T07:55:54;102745.59;;;15.24;51.53
23281;BME280;11809;56.390;-3.266;2023-03-02T07:58:21;102749.91;;;15.28;51.44
23281;BME280;11809;56.390;-3.266;2023-03-02T08:00:48;102743.63;;;15.32;51.37
23281;BME280;11809;56.390;-3.266;2023-03-02T08:03:15;102739.31;;;15.28;51.18
23281;BME280;11809;56.390;-3.266;2023-03-02T08:05:42;102753.34;;;15.33;51.41
23281;BME280;11809;56.390;-3.266;2023-03-02T08:08:09;102739.22;;;15.31;51.59
23281;BME280;11809;56.390;-3.266;2023-03-02T08:10:37;102747.91;;;15.36;51.38
23281;BME280;11809;56.390;-3.266;2023-03-02T08:13:04;102743.50;;;15.36;51.57
23281;BME280;11809;56.390;-3.266;2023-03-02T08:15:31;102746.97;;;15.38;51.59
23281;BME280;11809;56.390;-3.266;2023-03-02T08:17:58;102740.81;;;15.38;51.53
23281;BME280;11809;56.390;-3.266;2023-03-02T08:20:26;102739.06;;;15.37;51.53
23281;BME280;11809;56.390;-3.266;2023-03-02T08:22:53;102739.00;;;15.40;51.32
23281;BME280;11809;56.390;-3.266;2023-03-02T08:25:20;102738.13;;;15.39;51.21
23281;BME280;11809;56.390;-3.266;2023-03-02T08:27:47;102731.94;;;15.39;51.34
23281;BME280;11809;56.390;-3.266;2023-03-02T08:30:14;102740.69;;;15.42;51.18
23281;BME280;11809;56.390;-3.266;2023-03-02T08:32:41;102727.53;;;15.39;51.28
23281;BME280;11809;56.390;-3.266;2023-03-02T08:35:08;102739.75;;;15.45;51.55
23281;BME280;11809;56.390;-3.266;2023-03-02T08:37:35;102730.03;;;15.44;51.12
23281;BME280;11809;56.390;-3.266;2023-03-02T08:40:02;102725.63;;;15.46;51.45
23281;BME280;11809;56.390;-3.266;2023-03-02T08:42:29;102724.66;;;15.48;51.48
23281;BME280;11809;56.390;-3.266;2023-03-02T08:44:56;102720.31;;;15.46;51.39
23281;BME280;11809;56.390;-3.266;2023-03-02T08:47:23;102722.91;;;15.49;51.20
23281;BME280;11809;56.390;-3.266;2023-03-02T08:49:50;102716.66;;;15.50;51.08
23281;BME280;11809;56.390;-3.266;2023-03-02T08:52:17;102715.75;;;15.51;51.66
23281;BME280;11809;56.390;-3.266;2023-03-02T08:54:44;102719.19;;;15.54;51.38
23281;BME280;11809;56.390;-3.266;2023-03-02T08:57:12;102716.59;;;15.53;51.44
23281;BME280;11809;56.390;-3.266;2023-03-02T08:59:38;102717.41;;;15.55;51.41
23281;BME280;11809;56.390;-3.266;2023-03-02T09:02:06;102718.19;;;15.58;51.49
23281;BME280;11809;56.390;-3.266;2023-03-02T09:04:33;102720.78;;;15.60;51.37
23281;BME280;11809;56.390;-3.266;2023-03-02T09:07:00;102717.31;;;15.59;50.83
23281;BME280;11809;56.390;-3.266;2023-03-02T09:09:27;102714.53;;;15.62;51.40
23281;BME280;11809;56.390;-3.266;2023-03-02T09:11:54;102725.13;;;15.62;51.40
23281;BME280;11809;56.390;-3.266;2023-03-02T09:14:21;102722.38;;;15.67;51.09
23281;BME280;11809;56.390;-3.266;2023-03-02T09:16:48;102721.50;;;15.66;50.57
23281;BME280;11809;56.390;-3.266;2023-03-02T09:19:16;102721.53;;;15.65;50.74
23281;BME280;11809;56.390;-3.266;2023-03-02T09:21:44;102726.84;;;15.65;50.67
23281;BME280;11809;56.390;-3.266;2023-03-02T09:24:14;102729.47;;;15.65;50.67
23281;BME280;11809;56.390;-3.266;2023-03-02T09:26:41;102726.00;;;15.63;50.73
23281;BME280;11809;56.390;-3.266;2023-03-02T09:29:09;102709.28;;;15.61;50.73
23281;BME280;11809;56.390;-3.266;2023-03-02T09:31:36;102722.47;;;15.64;50.77
23281;BME280;11809;56.390;-3.266;2023-03-02T09:34:04;102720.72;;;15.63;50.91
23281;BME280;11809;56.390;-3.266;2023-03-02T09:36:31;102719.00;;;15.62;50.86
23281;BME280;11809;56.390;-3.266;2023-03-02T09:39:00;102716.28;;;15.63;50.74
23281;BME280;11809;56.390;-3.266;2023-03-02T09:42:04;102710.19;;;15.60;50.54
23281;BME280;11809;56.390;-3.266;2023-03-02T09:51:06;102708.47;;;15.59;50.40
23281;BME280;11809;56.390;-3.266;2023-03-02T09:56:18;102717.81;;;15.40;48.96
23281;BME280;11809;56.390;-3.266;2023-03-02T09:59:40;102712.66;;;15.34;48.96
23281;BME280;11809;56.390;-3.266;2023-03-02T10:01:55;102718.53;;;15.45;49.84
23281;BME280;11809;56.390;-3.266;2023-03-02T10:04:30;102714.00;;;15.50;49.97
23281;BME280;11809;56.390;-3.266;2023-03-02T10:07:12;102721.97;;;15.50;50.03
23281;BME280;11809;56.390;-3.266;2023-03-02T10:09:40;102709.44;;;15.55;50.40
23281;BME280;11809;56.390;-3.266;2023-03-02T10:12:40;102713.78;;;15.57;50.51
23281;BME280;11809;56.390;-3.266;2023-03-02T10:15:20;102709.38;;;15.58;50.01
23281;BME280;11809;56.390;-3.266;2023-03-02T10:20:35;102709.22;;;15.64;50.44
23281;BME280;11809;56.390;-3.266;2023-03-02T10:26:14;102708.91;;;15.74;50.11
23281;BME280;11809;56.390;-3.266;2023-03-02T10:28:49;102709.84;;;15.72;50.26
23281;BME280;11809;56.390;-3.266;2023-03-02T10:31:27;102705.75;;;15.60;50.08
23281;BME280;11809;56.390;-3.266;2023-03-02T10:33:56;102711.13;;;15.59;49.47
23281;BME280;11809;56.390;-3.266;2023-03-02T10:36:29;102713.84;;;15.56;49.74
23281;BME280;11809;56.390;-3.266;2023-03-02T10:38:57;102717.31;;;15.58;49.71
23281;BME280;11809;56.390;-3.266;2023-03-02T10:41:30;102719.06;;;15.59;49.80
23281;BME280;11809;56.390;-3.266;2023-03-02T10:44:06;102718.94;;;15.63;50.14
23281;BME280;11809;56.390;-3.266;2023-03-02T10:46:41;102717.47;;;15.53;50.16
23281;BME280;11809;56.390;-3.266;2023-03-02T10:49:31;102721.34;;;15.39;50.20
23281;BME280;11809;56.390;-3.266;2023-03-02T10:52:03;102729.59;;;15.28;50.50
23281;BME280;11809;56.390;-3.266;2023-03-02T10:54:33;102721.84;;;15.21;50.65
23281;BME280;11809;56.390;-3.266;2023-03-02T10:57:03;102720.31;;;15.12;50.98
23281;BME280;11809;56.390;-3.266;2023-03-02T10:59:43;102727.50;;;15.07;51.11
23281;BME280;11809;56.390;-3.266;2023-03-02T11:02:19;102724.09;;;15.03;50.88
23281;BME280;11809;56.390;-3.266;2023-03-02T11:04:57;102720.75;;;14.95;50.84
23281;BME280;11809;56.390;-3.266;2023-03-02T11:07:27;102722.47;;;14.96;51.07
23281;BME280;11809;56.390;-3.266;2023-03-02T11:09:59;102730.50;;;14.93;51.30
23281;BME280;11809;56.390;-3.266;2023-03-02T11:12:29;102733.13;;;14.93;51.36
23281;BME280;11809;56.390;-3.266;2023-03-02T11:15:01;102725.38;;;14.87;51.48
23281;BME280;11809;56.390;-3.266;2023-03-02T11:17:32;102728.09;;;14.84;51.24
23281;BME280;11809;56.390;-3.266;2023-03-02T11:20:01;102736.91;;;14.85;51.64
23281;BME280;11809;56.390;-3.266;2023-03-02T11:22:51;102726.38;;;14.82;51.69
23281;BME280;11809;56.390;-3.266;2023-03-02T11:25:27;102732.63;;;14.79;51.99
23281;BME280;11809;56.390;-3.266;2023-03-02T11:28:02;102734.47;;;14.76;51.93
23281;BME280;11809;56.390;-3.266;2023-03-02T11:30:35;102730.94;;;14.77;51.77
23281;BME280;11809;56.390;-3.266;2023-03-02T11:33:25;102733.53;;;14.78;51.82
23281;BME280;11809;56.390;-3.266;2023-03-02T11:36:02;102729.22;;;14.74;51.74
23281;BME280;11809;56.390;-3.266;2023-03-02T11:38:36;102729.22;;;14.74;51.62
23281;BME280;11809;56.390;-3.266;2023-03-02T11:41:23;102738.94;;;14.74;51.58
23281;BME280;11809;56.390;-3.266;2023-03-02T11:43:53;102734.53;;;14.73;51.45
23281;BME280;11809;56.390;-3.266;2023-03-02T11:46:23;102732.00;;;14.68;51.58
23281;BME280;11809;56.390;-3.266;2023-03-02T11:48:54;102735.63;;;14.64;51.61
23281;BME280;11809;56.390;-3.266;2023-03-02T11:51:29;102732.97;;;14.64;51.89
23281;BME280;11809;56.390;-3.266;2023-03-02T11:54:01;102735.69;;;14.63;52.02
23281;BME280;11809;56.390;-3.266;2023-03-02T11:56:32;102733.91;;;14.63;52.19
23281;BME280;11809;56.390;-3.266;2023-03-02T11:59:03;102732.34;;;14.53;51.05
23281;BME280;11809;56.390;-3.266;2023-03-02T12:01:34;102731.84;;;14.37;50.71
23281;BME280;11809;56.390;-3.266;2023-03-02T12:04:22;102732.91;;;14.29;50.33
23281;BME280;11809;56.390;-3.266;2023-03-02T12:06:51;102732.22;;;14.21;50.59
23281;BME280;11809;56.390;-3.266;2023-03-02T12:12:13;102730.78;;;14.46;51.95
23281;BME280;11809;56.390;-3.266;2023-03-02T12:14:41;102740.06;;;14.64;51.98
23281;BME280;11809;56.390;-3.266;2023-03-02T12:19:49;102723.75;;;14.80;52.43
23281;BME280;11809;56.390;-3.266;2023-03-02T12:22:30;102724.84;;;14.73;52.30
23281;BME280;11809;56.390;-3.266;2023-03-02T12:25:01;102729.13;;;14.77;52.47
23281;BME280;11809;56.390;-3.266;2023-03-02T12:27:35;102733.38;;;14.84;52.56
23281;BME280;11809;56.390;-3.266;2023-03-02T12:35:30;102715.84;;;14.43;50.71
23281;BME280;11809;56.390;-3.266;2023-03-02T12:38:00;102717.78;;;14.37;50.35
23281;BME280;11809;56.390;-3.266;2023-03-02T12:43:24;102710.66;;;14.39;50.81
23281;BME280;11809;56.390;-3.266;2023-03-02T12:51:31;102704.72;;;14.66;51.30
23281;BME280;11809;56.390;-3.266;2023-03-02T12:54:11;102700.00;;;14.79;51.83
23281;BME280;11809;56.390;-3.266;2023-03-02T12:56:39;102696.25;;;14.87;52.31
23281;BME280;11809;56.390;-3.266;2023-03-02T12:59:06;102694.44;;;14.89;52.00
23281;BME280;11809;56.390;-3.266;2023-03-02T13:01:33;102691.72;;;14.92;51.70
23281;BME280;11809;56.390;-3.266;2023-03-02T13:04:00;102698.72;;;14.93;52.04
23281;BME280;11809;56.390;-3.266;2023-03-02T13:06:30;102701.22;;;14.99;51.38
23281;BME280;11809;56.390;-3.266;2023-03-02T13:08:58;102696.88;;;14.97;51.17
23281;BME280;11809;56.390;-3.266;2023-03-02T13:11:30;102696.25;;;14.87;51.21
23281;BME280;11809;56.390;-3.266;2023-03-02T13:13:58;102688.31;;;14.87;51.29
23281;BME280;11809;56.390;-3.266;2023-03-02T13:16:29;102693.69;;;14.83;51.27
23281;BME280;11809;56.390;-3.266;2023-03-02T13:19:00;102697.19;;;14.85;51.34
23281;BME280;11809;56.390;-3.266;2023-03-02T13:21:31;102690.50;;;14.70;50.28
23281;BME280;11809;56.390;-3.266;2023-03-02T13:23:59;102700.19;;;14.71;50.41
23281;BME280;11809;56.390;-3.266;2023-03-02T13:26:32;102691.38;;;14.69;50.25
23281;BME280;11809;56.390;-3.266;2023-03-02T13:29:17;102683.28;;;14.77;50.89
23281;BME280;11809;56.390;-3.266;2023-03-02T13:31:46;102684.06;;;14.80;50.84
23281;BME280;11809;56.390;-3.266;2023-03-02T13:34:28;102682.47;;;14.73;51.72
23281;BME280;11809;56.390;-3.266;2023-03-02T13:36:59;102686.16;;;14.68;51.89